sensor_id;sensor_type;location;lat;lon;timestamp;pressure;altitude;pressure_sealevel;temperature;humidity
5350;BME280;2697;42.144;24.794;2023-11-21T00:00:24;154843.84;;;8.83;95.99
5350;BME280;2697;42.144;24.794;2023-11-21T00:02:50;154866.19;;;8.92;96.63
5350;BME280;2697;42.144;24.794;2023-11-21T00:05:15;154905.66;;;9.07;95.33
5350;BME280;2697;42.144;24.794;2023-11-21T00:07:42;154858.31;;;8.89;96.20
5350;BME280;2697;42.144;24.794;2023-11-21T00:10:08;154799.19;;;8.66;99.81
5350;BME280;2697;42.144;24.794;2023-11-21T00:12:35;154808.38;;;8.70;100.00
5350;BME280;2697;42.144;24.794;2023-11-21T00:15:01;154730.81;;;8.40;100.00
5350;BME280;2697;42.144;24.794;2023-11-21T00:17:27;154617.72;;;7.96;100.00
5350;BME280;2697;42.144;24.794;2023-11-21T00:19:52;154662.41;;;8.13;100.00
5350;BME280;2697;42.144;24.794;2023-11-21T00:22:18;154667.66;;;8.15;100.00
5350;BME280;2697;42.144;24.794;2023-11-21T00:24:44;154678.19;;;8.19;100.00
5350;BME280;2697;42.144;24.794;2023-11-21T00:27:09;154657.16;;;8.11;100.00
5350;BME280;2697;42.144;24.794;2023-11-21T00:29:35;154644.00;;;8.06;100.00
5350;BME280;2697;42.144;24.794;2023-11-21T00:32:00;154590.16;;;7.85;100.00
5350;BME280;2697;42.144;24.794;2023-11-21T00:34:26;154553.34;;;7.71;100.00
5350;BME280;2697;42.144;24.794;2023-11-21T00:36:51;154482.41;;;7.43;100.00
5350;BME280;2697;42.144;24.794;2023-11-21T00:39:16;154402.31;;;7.12;100.00
5350;BME280;2697;42.144;24.794;2023-11-21T00:41:42;154352.44;;;6.93;100.00
5350;BME280;2697;42.144;24.794;2023-11-21T00:44:07;154263.16;;;6.58;100.00
5350;BME280;2697;42.144;24.794;2023-11-21T00:46:33;154318.31;;;6.80;100.00
5350;BME280;2697;42.144;24.794;2023-11-21T00:48:58;154370.81;;;7.00;100.00
5350;BME280;2697;42.144;24.794;2023-11-21T00:51:24;154365.56;;;6.98;100.00
5350;BME280;2697;42.144;24.794;2023-11-21T00:53:49;154355.03;;;6.94;100.00
5350;BME280;2697;42.144;24.794;2023-11-21T00:56:15;154349.81;;;6.92;100.00
5350;BME280;2697;42.144;24.794;2023-11-21T00:58:40;154339.28;;;6.88;100.00
5350;BME280;2697;42.144;24.794;2023-11-21T01:01:11;154292.00;;;6.70;100.00
5350;BME280;2697;42.144;24.794;2023-11-21T01:03:37;154298.63;;;6.72;100.00
5350;BME280;2697;42.144;24.794;2023-11-21T01:06:02;154260.53;;;6.57;100.00
5350;BME280;2697;42.144;24.794;2023-11-21T01:08:28;154192.28;;;6.31;100.00
5350;BME280;2697;42.144;24.794;2023-11-21T01:10:54;154137.19;;;6.10;100.00
5350;BME280;2697;42.144;24.794;2023-11-21T01:13:20;154104.41;;;5.97;100.00
5350;BME280;2697;42.144;24.794;2023-11-21T01:15:46;154131.94;;;6.08;100.00
5350;BME280;2697;42.144;24.794;2023-11-21T01:18:11;154107.03;;;5.98;100.00
5350;BME280;2697;42.144;24.794;2023-11-21T01:20:37;154139.81;;;6.11;100.00
5350;BME280;2697;42.144;24.794;2023-11-21T01:23:02;154164.72;;;6.20;100.00
5350;BME280;2697;42.144;24.794;2023-11-21T01:25:28;154124.03;;;6.05;100.00
5350;BME280;2697;42.144;24.794;2023-11-21T01:27:53;154145.03;;;6.13;100.00
5350;BME280;2697;42.144;24.794;2023-11-21T01:30:18;154131.94;;;6.08;100.00
5350;BME280;2697;42.144;24.794;2023-11-21T01:32:44;154142.44;;;6.12;100.00
5350;BME280;2697;42.144;24.794;2023-11-21T01:35:09;154134.56;;;6.09;100.00
5350;BME280;2697;42.144;24.794;2023-11-21T01:37:38;154116.19;;;6.02;100.00
5350;BME280;2697;42.144;24.794;2023-11-21T01:40:04;154105.72;;;5.97;100.00
5350;BME280;2697;42.144;24.794;2023-11-21T01:42:34;154062.38;;;5.81;100.00
5350;BME280;2697;42.144;24.794;2023-11-21T01:45:00;153956.13;;;5.39;100.00
5350;BME280;2697;42.144;24.794;2023-11-21T01:47:33;153960.09;;;5.41;100.00
5350;BME280;2697;42.144;24.794;2023-11-21T01:49:59;154050.53;;;5.76;100.00
5350;BME280;2697;42.144;24.794;2023-11-21T01:52:25;154079.44;;;5.87;100.00
5350;BME280;2697;42.144;24.794;2023-11-21T01:54:51;154114.88;;;6.01;100.00
5350;BME280;2697;42.144;24.794;2023-11-21T01:57:19;154146.34;;;6.13;100.00
5350;BME280;2697;42.144;24.794;2023-11-21T01:59:48;153962.72;;;5.42;100.00
5350;BME280;2697;42.144;24.794;2023-11-21T02:02:15;153906.31;;;5.20;100.00
5350;BME280;2697;42.144;24.794;2023-11-21T02:04:41;153870.94;;;5.06;100.00
5350;BME280;2697;42.144;24.794;2023-11-21T02:07:07;153814.59;;;4.84;100.00
5350;BME280;2697;42.144;24.794;2023-11-21T02:09:32;153754.28;;;4.61;100.00
5350;BME280;2697;42.144;24.794;2023-11-21T02:11:59;153730.72;;;4.52;100.00
5350;BME280;2697;42.144;24.794;2023-11-21T02:14:25;153670.47;;;4.28;100.00
5350;BME280;2697;42.144;24.794;2023-11-21T02:16:53;153618.03;;;4.08;100.00
5350;BME280;2697;42.144;24.794;2023-11-21T02:19:20;153633.78;;;4.14;100.00
5350;BME280;2697;42.144;24.794;2023-11-21T02:21:49;153649.50;;;4.20;100.00
5350;BME280;2697;42.144;24.794;2023-11-21T02:24:15;153661.28;;;4.25;100.00
5350;BME280;2697;42.144;24.794;2023-11-21T02:26:41;153644.22;;;4.18;100.00
5350;BME280;2697;42.144;24.794;2023-11-21T02:29:06;153639.00;;;4.16;100.00
5350;BME280;2697;42.144;24.794;2023-11-21T02:31:35;153653.44;;;4.22;100.00
5350;BME280;2697;42.144;24.794;2023-11-21T02:34:02;153661.28;;;4.25;100.00
5350;BME280;2697;42.144;24.794;2023-11-21T02:36:28;153649.50;;;4.20;100.00
5350;BME280;2697;42.144;24.794;2023-11-21T02:38:53;153654.75;;;4.22;100.00
5350;BME280;2697;42.144;24.794;2023-11-21T02:41:19;153644.22;;;4.18;100.00
5350;BME280;2697;42.144;24.794;2023-11-21T02:43:44;153599.75;;;4.01;100.00
5350;BME280;2697;42.144;24.794;2023-11-21T02:46:10;153589.25;;;3.97;100.00
5350;BME280;2697;42.144;24.794;2023-11-21T02:48:35;153580.09;;;3.93;100.00
5350;BME280;2697;42.144;24.794;2023-11-21T02:51:01;153574.88;;;3.91;100.00
5350;BME280;2697;42.144;24.794;2023-11-21T02:53:26;153591.84;;;3.98;100.00
5350;BME280;2697;42.144;24.794;2023-11-21T02:55:52;153589.25;;;3.97;100.00
5350;BME280;2697;42.144;24.794;2023-11-21T02:58:17;153663.88;;;4.26;100.00
5350;BME280;2697;42.144;24.794;2023-11-21T03:00:42;153667.81;;;4.27;100.00
5350;BME280;2697;42.144;24.794;2023-11-21T03:03:08;153728.09;;;4.51;100.00
5350;BME280;2697;42.144;24.794;2023-11-21T03:05:33;153749.06;;;4.59;100.00
5350;BME280;2697;42.144;24.794;2023-11-21T03:08:00;153780.50;;;4.71;100.00
5350;BME280;2697;42.144;24.794;2023-11-21T03:10:26;153805.41;;;4.81;100.00
5350;BME280;2697;42.144;24.794;2023-11-21T03:12:52;153826.38;;;4.89;100.00
5350;BME280;2697;42.144;24.794;2023-11-21T03:15:18;153859.13;;;5.02;100.00
5350;BME280;2697;42.144;24.794;2023-11-21T03:17:43;153916.81;;;5.24;100.00
5350;BME280;2697;42.144;24.794;2023-11-21T03:20:09;153975.81;;;5.47;100.00
5350;BME280;2697;42.144;24.794;2023-11-21T03:22:36;153990.25;;;5.53;100.00
5350;BME280;2697;42.144;24.794;2023-11-21T03:25:02;154013.84;;;5.62;100.00
5350;BME280;2697;42.144;24.794;2023-11-21T03:27:28;154007.31;;;5.59;100.00
5350;BME280;2697;42.144;24.794;2023-11-21T03:29:53;154041.38;;;5.72;100.00
5350;BME280;2697;42.144;24.794;2023-11-21T03:32:19;153965.34;;;5.43;100.00
5350;BME280;2697;42.144;24.794;2023-11-21T03:34:55;153932.53;;;5.30;100.00
5350;BME280;2697;42.144;24.794;2023-11-21T03:37:21;153906.31;;;5.20;100.00
5350;BME280;2697;42.144;24.794;2023-11-21T03:39:47;153878.78;;;5.09;100.00
5350;BME280;2697;42.144;24.794;2023-11-21T03:42:12;153906.31;;;5.20;100.00
5350;BME280;2697;42.144;24.794;2023-11-21T03:44:38;153912.91;;;5.23;100.00
5350;BME280;2697;42.144;24.794;2023-11-21T03:47:03;153927.28;;;5.28;100.00
5350;BME280;2697;42.144;24.794;2023-11-21T03:49:28;153946.97;;;5.36;100.00
5350;BME280;2697;42.144;24.794;2023-11-21T03:51:55;153888.00;;;5.13;100.00
5350;BME280;2697;42.144;24.794;2023-11-21T03:54:20;153814.59;;;4.84;100.00
5350;BME280;2697;42.144;24.794;2023-11-21T03:56:46;153822.44;;;4.88;100.00
5350;BME280;2697;42.144;24.794;2023-11-21T03:59:11;153861.78;;;5.03;100.00
5350;BME280;2697;42.144;24.794;2023-11-21T04:01:37;153847.34;;;4.97;100.00
5350;BME280;2697;42.144;24.794;2023-11-21T04:04:03;153801.47;;;4.79;100.00
5350;BME280;2697;42.144;24.794;2023-11-21T04:06:29;153805.41;;;4.81;100.00
5350;BME280;2697;42.144;24.794;2023-11-21T04:08:54;153811.94;;;4.83;100.00
5350;BME280;2697;42.144;24.794;2023-11-21T04:11:20;153802.78;;;4.80;100.00
5350;BME280;2697;42.144;24.794;2023-11-21T04:13:45;153827.69;;;4.90;100.00
5350;BME280;2697;42.144;24.794;2023-11-21T04:16:12;153752.97;;;4.61;100.00
5350;BME280;2697;42.144;24.794;2023-11-21T04:18:38;153711.03;;;4.44;100.00
5350;BME280;2697;42.144;24.794;2023-11-21T04:21:07;153777.88;;;4.70;100.00
5350;BME280;2697;42.144;24.794;2023-11-21T04:23:33;153819.81;;;4.86;100.00
5350;BME280;2697;42.144;24.794;2023-11-21T04:25:59;153867.00;;;5.05;100.00
5350;BME280;2697;42.144;24.794;2023-11-21T04:28:24;153863.09;;;5.03;100.00
5350;BME280;2697;42.144;24.794;2023-11-21T04:30:50;153842.13;;;4.95;100.00
5350;BME280;2697;42.144;24.794;2023-11-21T04:33:16;153861.78;;;5.03;100.00
5350;BME280;2697;42.144;24.794;2023-11-21T04:35:41;153843.41;;;4.96;100.00
5350;BME280;2697;42.144;24.794;2023-11-21T04:38:07;153823.75;;;4.88;100.00
5350;BME280;2697;42.144;24.794;2023-11-21T04:40:32;153814.59;;;4.84;100.00
5350;BME280;2697;42.144;24.794;2023-11-21T04:42:58;153806.69;;;4.81;100.00
5350;BME280;2697;42.144;24.794;2023-11-21T04:45:23;153743.84;;;4.57;100.00
5350;BME280;2697;42.144;24.794;2023-11-21T04:47:49;153722.88;;;4.49;100.00
5350;BME280;2697;42.144;24.794;2023-11-21T04:50:14;153742.53;;;4.56;100.00
5350;BME280;2697;42.144;24.794;2023-11-21T04:52:40;153819.81;;;4.86;100.00
5350;BME280;2697;42.144;24.794;2023-11-21T04:55:05;153811.94;;;4.83;100.00
5350;BME280;2697;42.144;24.794;2023-11-21T04:57:35;153817.22;;;4.85;100.00
5350;BME280;2697;42.144;24.794;2023-11-21T05:00:00;153832.91;;;4.92;100.00
5350;BME280;2697;42.144;24.794;2023-11-21T05:02:26;153874.84;;;5.08;100.00
5350;BME280;2697;42.144;24.794;2023-11-21T05:04:51;153941.72;;;5.34;100.00
5350;BME280;2697;42.144;24.794;2023-11-21T05:07:16;153995.47;;;5.55;100.00
5350;BME280;2697;42.144;24.794;2023-11-21T05:09:42;153861.78;;;5.03;100.00
5350;BME280;2697;42.144;24.794;2023-11-21T05:12:10;153932.53;;;5.30;100.00
5350;BME280;2697;42.144;24.794;2023-11-21T05:14:36;153877.47;;;5.09;100.00
5350;BME280;2697;42.144;24.794;2023-11-21T05:17:01;153877.47;;;5.09;100.00
5350;BME280;2697;42.144;24.794;2023-11-21T05:19:27;153851.25;;;4.99;100.00
5350;BME280;2697;42.144;24.794;2023-11-21T05:21:52;153846.03;;;4.97;100.00
5350;BME280;2697;42.144;24.794;2023-11-21T05:24:17;153801.47;;;4.79;100.00
5350;BME280;2697;42.144;24.794;2023-11-21T05:26:43;153720.25;;;4.48;100.00
5350;BME280;2697;42.144;24.794;2023-11-21T05:29:08;153673.09;;;4.29;100.00
5350;BME280;2697;42.144;24.794;2023-11-21T05:31:36;153649.50;;;4.20;100.00
5350;BME280;2697;42.144;24.794;2023-11-21T05:34:01;153632.47;;;4.14;100.00
5350;BME280;2697;42.144;24.794;2023-11-21T05:36:27;153599.75;;;4.01;100.00
5350;BME280;2697;42.144;24.794;2023-11-21T05:38:52;153610.19;;;4.05;100.00
5350;BME280;2697;42.144;24.794;2023-11-21T05:41:17;153633.78;;;4.14;100.00
5350;BME280;2697;42.144;24.794;2023-11-21T05:43:43;153699.28;;;4.40;100.00
5350;BME280;2697;42.144;24.794;2023-11-21T05:46:09;153650.81;;;4.21;100.00
5350;BME280;2697;42.144;24.794;2023-11-21T05:48:34;153699.28;;;4.40;100.00
5350;BME280;2697;42.144;24.794;2023-11-21T05:51:04;153759.53;;;4.63;100.00
5350;BME280;2697;42.144;24.794;2023-11-21T05:53:29;153732.03;;;4.52;100.00
5350;BME280;2697;42.144;24.794;2023-11-21T05:55:55;153735.94;;;4.54;100.00
5350;BME280;2697;42.144;24.794;2023-11-21T05:58:21;153768.72;;;4.67;100.00
5350;BME280;2697;42.144;24.794;2023-11-21T06:00:46;153822.44;;;4.88;100.00
5350;BME280;2697;42.144;24.794;2023-11-21T06:03:11;153763.44;;;4.65;100.00
5350;BME280;2697;42.144;24.794;2023-11-21T06:05:37;153764.75;;;4.65;100.00
5350;BME280;2697;42.144;24.794;2023-11-21T06:08:03;153743.84;;;4.57;100.00
5350;BME280;2697;42.144;24.794;2023-11-21T06:10:28;153726.78;;;4.50;100.00
5350;BME280;2697;42.144;24.794;2023-11-21T06:12:53;153755.59;;;4.62;100.00
5350;BME280;2697;42.144;24.794;2023-11-21T06:15:19;153784.41;;;4.73;100.00
5350;BME280;2697;42.144;24.794;2023-11-21T06:17:46;153806.69;;;4.81;100.00
5350;BME280;2697;42.144;24.794;2023-11-21T06:20:15;153864.41;;;5.04;100.00
5350;BME280;2697;42.144;24.794;2023-11-21T06:22:44;153876.16;;;5.08;100.00
5350;BME280;2697;42.144;24.794;2023-11-21T06:25:11;153869.63;;;5.06;100.00
5350;BME280;2697;42.144;24.794;2023-11-21T06:27:40;153867.00;;;5.05;100.00
5350;BME280;2697;42.144;24.794;2023-11-21T06:30:06;153932.53;;;5.30;100.00
5350;BME280;2697;42.144;24.794;2023-11-21T06:32:32;153988.94;;;5.52;100.00
5350;BME280;2697;42.144;24.794;2023-11-21T06:34:57;153999.41;;;5.56;100.00
5350;BME280;2697;42.144;24.794;2023-11-21T06:37:28;154089.97;;;5.91;100.00
5350;BME280;2697;42.144;24.794;2023-11-21T06:39:54;154089.97;;;5.91;100.00
5350;BME280;2697;42.144;24.794;2023-11-21T06:42:20;154029.59;;;5.68;100.00
5350;BME280;2697;42.144;24.794;2023-11-21T06:44:46;154055.84;;;5.78;100.00
5350;BME280;2697;42.144;24.794;2023-11-21T06:47:12;154146.34;;;6.13;100.00
5350;BME280;2697;42.144;24.794;2023-11-21T06:49:37;154116.19;;;6.02;100.00
5350;BME280;2697;42.144;24.794;2023-11-21T06:52:04;154092.56;;;5.92;100.00
5350;BME280;2697;42.144;24.794;2023-11-21T06:54:31;154131.94;;;6.08;100.00
5350;BME280;2697;42.144;24.794;2023-11-21T06:56:57;154112.25;;;6.00;100.00
5350;BME280;2697;42.144;24.794;2023-11-21T06:59:23;154112.25;;;6.00;100.00
5350;BME280;2697;42.144;24.794;2023-11-21T07:01:49;154076.81;;;5.86;100.00
5350;BME280;2697;42.144;24.794;2023-11-21T07:04:14;154087.34;;;5.90;100.00
5350;BME280;2697;42.144;24.794;2023-11-21T07:06:40;154108.34;;;5.98;100.00
5350;BME280;2697;42.144;24.794;2023-11-21T07:09:06;154168.66;;;6.22;100.00
5350;BME280;2697;42.144;24.794;2023-11-21T07:11:34;154226.44;;;6.44;100.00
5350;BME280;2697;42.144;24.794;2023-11-21T07:13:59;154271.06;;;6.62;100.00
5350;BME280;2697;42.144;24.794;2023-11-21T07:16:27;154298.63;;;6.72;100.00
5350;BME280;2697;42.144;24.794;2023-11-21T07:18:53;154349.81;;;6.92;100.00
5350;BME280;2697;42.144;24.794;2023-11-21T07:21:20;154386.53;;;7.06;100.00
5350;BME280;2697;42.144;24.794;2023-11-21T07:23:46;154415.47;;;7.18;100.00
5350;BME280;2697;42.144;24.794;2023-11-21T07:26:11;154410.16;;;7.15;100.00
5350;BME280;2697;42.144;24.794;2023-11-21T07:28:37;154440.41;;;7.27;100.00
5350;BME280;2697;42.144;24.794;2023-11-21T07:31:03;154485.06;;;7.45;100.00
5350;BME280;2697;42.144;24.794;2023-11-21T07:33:28;154444.34;;;7.29;100.00
5350;BME280;2697;42.144;24.794;2023-11-21T07:35:53;154414.16;;;7.17;100.00
5350;BME280;2697;42.144;24.794;2023-11-21T07:38:19;154402.31;;;7.12;100.00
5350;BME280;2697;42.144;24.794;2023-11-21T07:40:44;154432.50;;;7.24;100.00
5350;BME280;2697;42.144;24.794;2023-11-21T07:43:10;154452.22;;;7.32;100.00
5350;BME280;2697;42.144;24.794;2023-11-21T07:45:36;154490.31;;;7.47;100.00
5350;BME280;2697;42.144;24.794;2023-11-21T07:48:01;154573.06;;;7.79;100.00
5350;BME280;2697;42.144;24.794;2023-11-21T07:50:28;154584.91;;;7.83;100.00
5350;BME280;2697;42.144;24.794;2023-11-21T07:52:54;154617.72;;;7.96;100.00
5350;BME280;2697;42.144;24.794;2023-11-21T07:55:20;154649.25;;;8.08;100.00
5350;BME280;2697;42.144;24.794;2023-11-21T07:57:45;154716.28;;;8.34;100.00
5350;BME280;2697;42.144;24.794;2023-11-21T08:00:11;154709.72;;;8.32;100.00
5350;BME280;2697;42.144;24.794;2023-11-21T08:02:38;154746.56;;;8.46;100.00
5350;BME280;2697;42.144;24.794;2023-11-21T08:05:05;154800.50;;;8.67;100.00
5350;BME280;2697;42.144;24.794;2023-11-21T08:07:32;154814.94;;;8.72;100.00
5350;BME280;2697;42.144;24.794;2023-11-21T08:09:57;154875.44;;;8.96;100.00
5350;BME280;2697;42.144;24.794;2023-11-21T08:12:23;154904.34;;;9.07;100.00
5350;BME280;2697;42.144;24.794;2023-11-21T08:14:49;154939.84;;;9.21;100.00
5350;BME280;2697;42.144;24.794;2023-11-21T08:17:14;154938.53;;;9.20;100.00
5350;BME280;2697;42.144;24.794;2023-11-21T08:19:40;154960.91;;;9.29;100.00
5350;BME280;2697;42.144;24.794;2023-11-21T08:22:05;154996.44;;;9.42;100.00
5350;BME280;2697;42.144;24.794;2023-11-21T08:24:33;155066.19;;;9.69;100.00
5350;BME280;2697;42.144;24.794;2023-11-21T08:26:58;155109.56;;;9.86;100.00
5350;BME280;2697;42.144;24.794;2023-11-21T08:29:24;155151.69;;;10.03;100.00
5350;BME280;2697;42.144;24.794;2023-11-21T08:31:49;155196.44;;;10.20;100.00
5350;BME280;2697;42.144;24.794;2023-11-21T08:34:15;155259.72;;;10.44;100.00
5350;BME280;2697;42.144;24.794;2023-11-21T08:36:43;155296.56;;;10.59;100.00
5350;BME280;2697;42.144;24.794;2023-11-21T08:39:09;155322.88;;;10.69;100.00
5350;BME280;2697;42.144;24.794;2023-11-21T08:41:35;155391.38;;;10.95;100.00
5350;BME280;2697;42.144;24.794;2023-11-21T08:44:02;155430.91;;;11.10;95.74
5350;BME280;2697;42.144;24.794;2023-11-21T08:46:27;155477.03;;;11.28;95.07
5350;BME280;2697;42.144;24.794;2023-11-21T08:48:53;155506.00;;;11.39;92.91
5350;BME280;2697;42.144;24.794;2023-11-21T08:51:18;155557.38;;;11.59;93.85
5350;BME280;2697;42.144;24.794;2023-11-21T08:53:44;155558.69;;;11.60;90.47
5350;BME280;2697;42.144;24.794;2023-11-21T08:56:13;155575.84;;;11.66;90.43
5350;BME280;2697;42.144;24.794;2023-11-21T08:58:39;155615.41;;;11.82;88.72
5350;BME280;2697;42.144;24.794;2023-11-21T09:01:05;155647.06;;;11.94;87.02
5350;BME280;2697;42.144;24.794;2023-11-21T09:03:32;155615.41;;;11.82;85.47
5350;BME280;2697;42.144;24.794;2023-11-21T09:05:59;155625.97;;;11.86;84.47
5350;BME280;2697;42.144;24.794;2023-11-21T09:08:25;155639.13;;;11.91;85.69
5350;BME280;2697;42.144;24.794;2023-11-21T09:10:50;155668.16;;;12.02;84.62
5350;BME280;2697;42.144;24.794;2023-11-21T09:13:17;155694.53;;;12.12;82.49
5350;BME280;2697;42.144;24.794;2023-11-21T09:15:43;155722.22;;;12.23;81.78
5350;BME280;2697;42.144;24.794;2023-11-21T09:18:13;155772.31;;;12.42;78.32
5350;BME280;2697;42.144;24.794;2023-11-21T09:20:38;155780.22;;;12.45;77.96
5350;BME280;2697;42.144;24.794;2023-11-21T09:23:04;155803.94;;;12.54;74.28
5350;BME280;2697;42.144;24.794;2023-11-21T09:25:29;155864.63;;;12.78;76.08
5350;BME280;2697;42.144;24.794;2023-11-21T09:27:55;155918.72;;;12.99;74.61
5350;BME280;2697;42.144;24.794;2023-11-21T09:30:21;155859.38;;;12.76;74.00
5350;BME280;2697;42.144;24.794;2023-11-21T09:32:46;155937.19;;;13.06;74.14
5350;BME280;2697;42.144;24.794;2023-11-21T09:35:12;155958.31;;;13.14;72.64
5350;BME280;2697;42.144;24.794;2023-11-21T09:37:39;155929.31;;;13.03;70.67
5350;BME280;2697;42.144;24.794;2023-11-21T09:40:06;155876.50;;;12.82;72.70
5350;BME280;2697;42.144;24.794;2023-11-21T09:42:45;155997.91;;;13.29;70.79
5350;BME280;2697;42.144;24.794;2023-11-21T09:47:43;156025.63;;;13.40;69.72
5350;BME280;2697;42.144;24.794;2023-11-21T09:50:09;155976.81;;;13.21;70.23
5350;BME280;2697;42.144;24.794;2023-11-21T09:55:45;156021.66;;;13.38;69.38
5350;BME280;2697;42.144;24.794;2023-11-21T09:58:13;155933.25;;;13.04;70.28
5350;BME280;2697;42.144;24.794;2023-11-21T10:00:49;155949.03;;;13.10;69.26
5350;BME280;2697;42.144;24.794;2023-11-21T10:03:15;155992.66;;;13.27;68.96
5350;BME280;2697;42.144;24.794;2023-11-21T10:05:42;155999.22;;;13.30;69.99
5350;BME280;2697;42.144;24.794;2023-11-21T10:08:11;155996.59;;;13.29;68.86
5350;BME280;2697;42.144;24.794;2023-11-21T10:10:41;156079.78;;;13.61;68.70
5350;BME280;2697;42.144;24.794;2023-11-21T10:13:09;156066.56;;;13.56;68.60
5350;BME280;2697;42.144;24.794;2023-11-21T10:15:36;156178.78;;;13.99;66.03
5350;BME280;2697;42.144;24.794;2023-11-21T10:18:07;156165.53;;;13.94;66.16
5350;BME280;2697;42.144;24.794;2023-11-21T10:20:33;156221.03;;;14.15;63.93
5350;BME280;2697;42.144;24.794;2023-11-21T10:23:00;156157.63;;;13.91;65.28
5350;BME280;2697;42.144;24.794;2023-11-21T10:25:29;156087.69;;;13.64;65.66
5350;BME280;2697;42.144;24.794;2023-11-21T10:28:01;156151.06;;;13.88;66.12
5350;BME280;2697;42.144;24.794;2023-11-21T10:30:37;156296.31;;;14.44;63.47
5350;BME280;2697;42.144;24.794;2023-11-21T10:33:04;156257.97;;;14.30;64.15
5350;BME280;2697;42.144;24.794;2023-11-21T10:35:49;156231.56;;;14.19;64.08
5350;BME280;2697;42.144;24.794;2023-11-21T10:38:16;156240.81;;;14.23;63.71
5350;BME280;2697;42.144;24.794;2023-11-21T10:40:43;156337.25;;;14.60;63.57
5350;BME280;2697;42.144;24.794;2023-11-21T10:43:10;156232.91;;;14.20;62.86
5350;BME280;2697;42.144;24.794;2023-11-21T10:45:39;156165.53;;;13.94;64.89
5350;BME280;2697;42.144;24.794;2023-11-21T10:48:09;156161.59;;;13.92;64.19
5350;BME280;2697;42.144;24.794;2023-11-21T10:50:37;156153.69;;;13.89;64.89
5350;BME280;2697;42.144;24.794;2023-11-21T10:53:03;156176.13;;;13.98;64.69
5350;BME280;2697;42.144;24.794;2023-11-21T10:55:30;156240.81;;;14.23;64.46
5350;BME280;2697;42.144;24.794;2023-11-21T10:57:58;156238.16;;;14.22;63.24
5350;BME280;2697;42.144;24.794;2023-11-21T11:00:24;156285.72;;;14.40;62.56
5350;BME280;2697;42.144;24.794;2023-11-21T11:02:52;156337.25;;;14.60;62.98
5350;BME280;2697;42.144;24.794;2023-11-21T11:05:23;156395.41;;;14.82;60.67
5350;BME280;2697;42.144;24.794;2023-11-21T11:08:08;156228.94;;;14.18;61.88
5350;BME280;2697;42.144;24.794;2023-11-21T11:10:37;156232.91;;;14.20;61.98
5350;BME280;2697;42.144;24.794;2023-11-21T11:13:03;156243.50;;;14.24;61.43
5350;BME280;2697;42.144;24.794;2023-11-21T11:15:29;156209.13;;;14.11;61.55
5350;BME280;2697;42.144;24.794;2023-11-21T11:17:55;156205.16;;;14.09;61.66
5350;BME280;2697;42.144;24.794;2023-11-21T11:20:25;156232.91;;;14.20;61.00
5350;BME280;2697;42.144;24.794;2023-11-21T11:22:57;156283.06;;;14.39;60.29
5350;BME280;2697;42.144;24.794;2023-11-21T11:35:05;156251.41;;;14.27;60.44
5350;BME280;2697;42.144;24.794;2023-11-21T11:37:33;156283.06;;;14.39;60.67
5350;BME280;2697;42.144;24.794;2023-11-21T11:39:59;156363.69;;;14.70;58.77
5350;BME280;2697;42.144;24.794;2023-11-21T11:42:26;156320.13;;;14.53;59.46
5350;BME280;2697;42.144;24.794;2023-11-21T11:44:52;156180.09;;;14.00;61.98
5350;BME280;2697;42.144;24.794;2023-11-21T11:47:30;156221.03;;;14.15;61.38
5350;BME280;2697;42.144;24.794;2023-11-21T11:50:04;156143.09;;;13.85;61.53
5350;BME280;2697;42.144;24.794;2023-11-21T11:52:40;156108.81;;;13.72;62.33
5350;BME280;2697;42.144;24.794;2023-11-21T11:55:07;156103.53;;;13.70;62.89
5350;BME280;2697;42.144;24.794;2023-11-21T11:57:35;156094.25;;;13.66;62.66
5350;BME280;2697;42.144;24.794;2023-11-21T12:02:59;156131.25;;;13.81;63.05
5350;BME280;2697;42.144;24.794;2023-11-21T12:05:28;156107.47;;;13.72;63.69
5350;BME280;2697;42.144;24.794;2023-11-21T12:07:55;156139.16;;;13.84;63.66
5350;BME280;2697;42.144;24.794;2023-11-21T12:10:26;156140.47;;;13.84;63.66
5350;BME280;2697;42.144;24.794;2023-11-21T12:13:05;156170.88;;;13.96;63.97
5350;BME280;2697;42.144;24.794;2023-11-21T12:15:35;156106.16;;;13.71;64.57
5350;BME280;2697;42.144;24.794;2023-11-21T12:18:02;156143.09;;;13.85;63.63
5350;BME280;2697;42.144;24.794;2023-11-21T12:20:28;156110.13;;;13.73;64.74
5350;BME280;2697;42.144;24.794;2023-11-21T12:22:55;156161.59;;;13.92;64.05
5350;BME280;2697;42.144;24.794;2023-11-21T12:25:28;156140.47;;;13.84;63.69
5350;BME280;2697;42.144;24.794;2023-11-21T12:27:55;156170.88;;;13.96;63.10
5350;BME280;2697;42.144;24.794;2023-11-21T12:30:23;156058.66;;;13.53;65.94
5350;BME280;2697;42.144;24.794;2023-11-21T12:32:50;156119.34;;;13.76;64.91
5350;BME280;2697;42.144;24.794;2023-11-21T12:35:20;156185.38;;;14.02;63.90
5350;BME280;2697;42.144;24.794;2023-11-21T12:37:46;156149.75;;;13.88;64.03
5350;BME280;2697;42.144;24.794;2023-11-21T12:40:15;156182.72;;;14.01;64.18
5350;BME280;2697;42.144;24.794;2023-11-21T12:42:42;156205.16;;;14.09;64.12
5350;BME280;2697;42.144;24.794;2023-11-21T12:45:08;156153.69;;;13.89;65.14
5350;BME280;2697;42.144;24.794;2023-11-21T12:47:36;156135.19;;;13.82;65.97
5350;BME280;2697;42.144;24.794;2023-11-21T12:50:03;156178.78;;;13.99;64.15
5350;BME280;2697;42.144;24.794;2023-11-21T12:52:30;156162.91;;;13.93;64.57
5350;BME280;2697;42.144;24.794;2023-11-21T12:54:56;156203.84;;;14.09;64.43
5350;BME280;2697;42.144;24.794;2023-11-21T12:57:25;156176.13;;;13.98;64.86
5350;BME280;2697;42.144;24.794;2023-11-21T12:59:57;156151.06;;;13.88;66.06
5350;BME280;2697;42.144;24.794;2023-11-21T13:02:22;156190.63;;;14.04;65.21
5350;BME280;2697;42.144;24.794;2023-11-21T13:04:53;156194.59;;;14.05;64.68
5350;BME280;2697;42.144;24.794;2023-11-21T13:07:19;156141.78;;;13.85;64.00
5350;BME280;2697;42.144;24.794;2023-11-21T13:09:45;156158.97;;;13.91;64.49
5350;BME280;2697;42.144;24.794;2023-11-21T13:12:11;156092.94;;;13.66;64.33
5350;BME280;2697;42.144;24.794;2023-11-21T13:14:39;156090.31;;;13.65;65.82